This is the latest recevied weather packets stored in our database for station/object YD2APR-13. If no packets are shown the sender has not sent any weather packets the latest 10 day(s).
| Time | Temp. | Humidity | Pressure | Rain* | Wind** | Luminosity | Snow |
|---|---|---|---|---|---|---|---|
| 1788053064 | 80° F | 74% | 766 mmHg | - | - | - | - |
| 1788052464 | 78° F | 77% | 766 mmHg | - | - | - | - |
| 1788051864 | 77° F | 77% | 766 mmHg | - | - | - | - |
| 1788051264 | 85° F | 80% | 739.6 mmHg | - | - | - | - |
| 1788050664 | 80° F | 81% | 739.6 mmHg | - | - | - | - |
| 1788050064 | 79° F | 82% | 752.5 mmHg | - | - | - | - |
| 1788049464 | 74° F | 82% | 765.5 mmHg | - | - | - | - |
| 1788048864 | 75° F | 82% | 765.4 mmHg | - | - | - | - |
| 1788048265 | 74° F | 82% | 765.4 mmHg | - | - | - | - |
| 1788047664 | 83° F | 82% | 752.3 mmHg | - | - | - | - |
| 1788047064 | 87° F | 82% | 739 mmHg | - | - | - | - |
| 1788046464 | 82° F | 83% | 738.9 mmHg | - | - | - | - |
| 1788045864 | 87° F | 83% | 725.7 mmHg | - | - | - | - |
| 1788045264 | 86° F | 84% | 712.5 mmHg | - | - | - | - |
| 1788044664 | 77° F | 86% | 738.6 mmHg | - | - | - | - |
| 1788044064 | 72° F | 87% | 764.6 mmHg | - | - | - | - |
| 1788043464 | 71° F | 89% | 764.5 mmHg | - | - | - | - |
| 1788042864 | 80° F | 91% | 738.2 mmHg | - | - | - | - |
| 1788042266 | 80° F | 92% | 738.1 mmHg | - | - | - | - |
| 1788041664 | 70° F | 92% | 764.2 mmHg | - | - | - | - |
| 1788041064 | 70° F | 92% | 764.2 mmHg | - | - | - | - |
| 1788040464 | 70° F | 93% | 764.2 mmHg | - | - | - | - |
| 1788039864 | 75° F | 92% | 751.1 mmHg | - | - | - | - |
| 1788039264 | 70° F | 92% | 764.2 mmHg | - | - | - | - |
| 1788038664 | 70° F | 92% | 764.2 mmHg | - | - | - | - |
* Rain since midnight (hover to see other rain measurements)
** Current wind speed in m/s (hover to see current wind gust speed)